Time;durP1;ratioP1;P1;durP2;ratioP2;P2;SDS_P1;SDS_P2;PMS_P1;PMS_P2;Temp;Humidity;BMP_temperature;BMP_pressure;BME280_temperature;BME280_humidity;BME280_pressure;Samples;Min_cycle;Max_cycle;Signal;HPM_P1;HPM_P2
2020/12/03 00:00:52;;;;;;;24.05;16.17;;;;;;;21.96;35.62;95283.72;5081341;28;20545;-76
2020/12/03 00:03:28;;;;;;;22.30;16.08;;;;;;;21.97;35.92;95290.63;5081440;28;20880;-74
2020/12/03 00:06:02;;;;;;;23.50;15.88;;;;;;;21.94;35.75;95278.03;5080899;28;20032;-77
2020/12/03 00:08:29;;;;;;;22.10;16.13;;;;;;;21.93;36.01;95290.13;5063554;28;20036;-77
2020/12/03 00:10:54;;;;;;;22.85;15.68;;;;;;;21.87;35.89;95279.72;5086737;28;20032;-77
2020/12/03 00:13:23;;;;;;;21.90;15.02;;;;;;;21.90;35.91;95282.22;5084537;28;20032;-76
2020/12/03 00:15:52;;;;;;;25.27;16.95;;;;;;;21.85;36.03;95284.94;5064218;28;20109;-77
2020/12/03 00:18:18;;;;;;;24.48;17.52;;;;;;;21.83;35.93;95287.41;5082261;28;20036;-76
2020/12/03 00:20:43;;;;;;;20.90;15.65;;;;;;;21.78;35.84;95291.59;5080848;28;20039;-77
2020/12/03 00:23:09;;;;;;;22.67;15.60;;;;;;;21.84;35.74;95295.06;5082464;28;20394;-76
2020/12/03 00:25:34;;;;;;;23.13;15.98;;;;;;;21.77;36.03;95305.69;5063570;28;20524;-76
2020/12/03 00:28:00;;;;;;;21.70;15.05;;;;;;;21.68;36.18;95295.03;5081002;28;20516;-76
2020/12/03 00:30:25;;;;;;;24.00;15.80;;;;;;;21.71;36.28;95307.66;5064176;28;20417;-76
2020/12/03 00:32:51;;;;;;;23.17;16.00;;;;;;;21.66;36.06;95294.78;5080005;28;20028;-77
2020/12/03 00:35:18;;;;;;;23.50;15.90;;;;;;;21.73;35.95;95291.56;5064824;28;20028;-76
2020/12/03 00:37:43;;;;;;;22.05;16.73;;;;;;;21.61;35.87;95284.63;5084269;28;20032;-76
2020/12/03 00:40:09;;;;;;;20.77;15.02;;;;;;;21.66;35.94;95294.78;5084694;28;20408;-76
2020/12/03 00:42:34;;;;;;;21.80;15.75;;;;;;;21.60;36.15;95285.88;5083482;28;20024;-76
2020/12/03 00:45:00;;;;;;;21.20;15.30;;;;;;;21.66;36.23;95297.50;5059314;28;20106;-76
2020/12/03 00:47:25;;;;;;;22.92;15.93;;;;;;;21.61;36.07;95292.78;5055460;28;20071;-76
2020/12/03 00:49:51;;;;;;;21.35;15.27;;;;;;;21.68;35.98;95303.19;5072372;28;20043;-77
2020/12/03 00:52:16;;;;;;;20.60;14.50;;;;;;;21.57;36.15;95298.47;5075153;28;20502;-76
2020/12/03 00:54:42;;;;;;;21.45;15.63;;;;;;;21.60;36.11;95299.47;5072909;28;20054;-77
2020/12/03 00:57:08;;;;;;;23.30;15.23;;;;;;;21.53;36.10;95297.22;5051181;28;20028;-77
2020/12/03 00:59:37;;;;;;;22.33;15.57;;;;;;;21.55;36.02;95297.47;5048748;28;20063;-76
2020/12/03 01:02:06;;;;;;;21.55;14.80;;;;;;;21.49;36.20;95291.28;5070760;28;20169;-76
2020/12/03 01:04:31;;;;;;;22.30;14.98;;;;;;;21.50;36.06;95296.22;5072115;28;20036;-76
2020/12/03 01:06:56;;;;;;;21.45;14.63;;;;;;;21.45;36.27;95298.91;5067558;28;20029;-76
2020/12/03 01:09:22;;;;;;;20.55;14.40;;;;;;;21.53;36.27;95297.22;5061499;28;20036;-76
2020/12/03 01:11:47;;;;;;;22.40;14.98;;;;;;;21.46;36.14;95286.81;5052770;28;20820;-76
2020/12/03 01:14:13;;;;;;;21.85;14.80;;;;;;;21.41;36.39;95284.81;5068943;28;20513;-76
2020/12/03 01:16:38;;;;;;;19.05;14.45;;;;;;;21.43;36.44;95276.91;5060962;28;20040;-76
2020/12/03 01:19:03;;;;;;;21.65;15.10;;;;;;;21.39;36.26;95270.97;5072426;28;20139;-76
2020/12/03 01:21:29;;;;;;;24.75;15.48;;;;;;;21.29;36.26;95261.56;5070228;28;20501;-76
2020/12/03 01:23:54;;;;;;;20.98;14.52;;;;;;;21.39;36.40;95276.41;5066175;28;20032;-76
2020/12/03 01:26:20;;;;;;;23.52;15.35;;;;;;;21.28;36.25;95254.63;5067027;28;20033;-74
2020/12/03 01:28:45;;;;;;;21.10;14.18;;;;;;;21.32;36.17;95268.72;5074274;28;20040;-74
2020/12/03 01:31:11;;;;;;;22.35;14.75;;;;;;;21.31;36.19;95269.94;5070680;28;20036;-75
2020/12/03 01:33:38;;;;;;;20.38;13.18;;;;;;;21.31;36.57;95267.22;5051703;28;20032;-77
2020/12/03 01:36:03;;;;;;;21.58;13.88;;;;;;;21.34;36.51;95268.97;5070615;28;20530;-76
2020/12/03 01:38:28;;;;;;;20.05;14.23;;;;;;;21.26;36.37;95262.53;5073271;28;20040;-76
2020/12/03 01:40:54;;;;;;;20.38;14.00;;;;;;;21.34;36.31;95262.81;5051834;28;20029;-76
2020/12/03 01:43:19;;;;;;;21.13;14.82;;;;;;;21.27;36.30;95258.59;5069219;28;20032;-77
2020/12/03 01:45:56;;;;;;;19.13;14.43;;;;;;;21.25;36.64;95255.59;5084829;28;20039;-76
2020/12/03 01:48:43;;;;;;;21.90;14.05;;;;;;;21.25;37.07;95255.59;5069294;28;20042;-76
2020/12/03 01:51:23;;;;;;;20.58;13.73;;;;;;;21.22;36.56;95251.16;5104129;28;20144;-77
2020/12/03 01:53:49;;;;;;;;;;;;;;;21.12;36.52;95247.19;5089873;28;20115;-76
2020/12/03 01:56:22;;;;;;;22.40;14.68;;;;;;;21.21;36.35;95238.81;5095957;28;19923;-76
2020/12/03 01:58:47;;;;;;;21.08;14.88;;;;;;;21.18;36.39;95239.78;5091501;28;20047;-76
2020/12/03 02:01:13;;;;;;;19.90;13.73;;;;;;;21.15;36.41;95240.78;5087567;28;20023;-77
2020/12/03 02:03:48;;;;;;;19.50;13.50;;;;;;;21.18;36.42;95239.78;5086176;28;20015;-76
2020/12/03 02:06:21;;;;;;;20.35;13.40;;;;;;;21.15;36.58;95240.00;5103757;28;20546;-76
2020/12/03 02:08:46;;;;;;;21.63;13.18;;;;;;;21.06;36.67;95219.28;5069288;28;20523;-76
2020/12/03 02:11:12;;;;;;;22.35;13.75;;;;;;;21.10;36.46;95222.47;5085939;28;20151;-76
2020/12/03 02:13:42;;;;;;;18.65;13.50;;;;;;;21.12;36.50;95228.19;5086279;28;20478;-76
2020/12/03 02:16:07;;;;;;;21.23;13.50;;;;;;;21.08;36.82;95224.94;5085226;28;20516;-76
2020/12/03 02:18:32;;;;;;;19.67;13.23;;;;;;;21.08;36.35;95230.38;5105155;28;20027;-76
2020/12/03 02:20:58;;;;;;;20.25;13.43;;;;;;;21.05;36.55;95217.78;5085734;28;20027;-77
2020/12/03 02:23:23;;;;;;;19.08;13.15;;;;;;;21.04;36.47;95223.69;5084546;28;20040;-76
2020/12/03 02:25:48;;;;;;;20.25;13.13;;;;;;;21.06;36.64;95216.56;5085885;28;20048;-76
2020/12/03 02:28:14;;;;;;;20.00;13.02;;;;;;;21.08;36.65;95230.38;5068554;28;20040;-76
2020/12/03 02:30:39;;;;;;;18.52;13.15;;;;;;;21.05;36.73;95225.91;5102478;28;20031;-76
2020/12/03 02:33:05;;;;;;;18.17;12.60;;;;;;;21.06;36.69;95213.09;5067759;28;20028;-76
2020/12/03 02:35:30;;;;;;;19.08;12.68;;;;;;;21.01;36.58;95209.13;5068520;28;20043;-76
2020/12/03 02:37:56;;;;;;;17.65;12.05;;;;;;;21.00;36.59;95218.50;5085522;28;20028;-76
2020/12/03 02:40:21;;;;;;;19.05;12.65;;;;;;;20.98;36.48;95204.69;5104608;28;20032;-76
2020/12/03 02:42:46;;;;;;;16.65;11.82;;;;;;;20.97;36.67;95219.47;5087808;28;20043;-76
2020/12/03 02:45:12;;;;;;;18.92;12.10;;;;;;;20.97;36.60;95219.47;5089768;28;20485;-76
2020/12/03 02:47:37;;;;;;;18.48;12.52;;;;;;;20.95;36.47;95210.34;5069573;28;20155;-76
2020/12/03 02:50:04;;;;;;;18.73;12.23;;;;;;;20.91;36.63;95198.22;5103654;28;20180;-77
2020/12/03 02:52:30;;;;;;;18.33;12.30;;;;;;;20.96;36.47;95212.56;5068754;28;20027;-77
2020/12/03 02:54:55;;;;;;;18.75;12.65;;;;;;;20.87;36.81;95203.16;5068581;28;20038;-76
2020/12/03 02:57:21;;;;;;;19.27;12.68;;;;;;;20.95;36.57;95204.19;5067972;28;20069;-76
2020/12/03 02:59:47;;;;;;;18.02;12.50;;;;;;;20.80;36.73;95190.06;5067609;28;20085;-76
2020/12/03 03:02:12;;;;;;;15.73;11.43;;;;;;;20.89;36.44;95200.69;5083551;28;20097;-76
2020/12/03 03:04:38;;;;;;;16.95;11.68;;;;;;;20.84;36.51;95191.31;5067062;28;20078;-76
2020/12/03 03:07:03;;;;;;;17.08;11.88;;;;;;;20.82;36.62;95184.88;5085148;28;20044;-76
2020/12/03 03:09:29;;;;;;;16.90;11.85;;;;;;;20.88;36.66;95191.06;5084598;28;20036;-76
2020/12/03 03:11:54;;;;;;;18.00;11.70;;;;;;;20.87;36.52;95198.47;5051411;28;20023;-76
2020/12/03 03:14:20;;;;;;;17.70;12.57;;;;;;;20.81;36.90;95180.69;5084551;28;20492;-76
2020/12/03 03:16:46;;;;;;;18.15;11.73;;;;;;;20.84;36.71;95190.56;5083467;28;20516;-76
2020/12/03 03:19:11;;;;;;;17.67;11.20;;;;;;;20.85;36.94;95194.75;5085244;28;20023;-77
2020/12/03 03:21:37;;;;;;;17.20;11.60;;;;;;;20.83;36.53;95197.22;5084664;28;20386;-76
2020/12/03 03:24:02;;;;;;;18.38;11.80;;;;;;;20.77;36.46;95186.34;5084282;28;20500;-76
2020/12/03 03:26:28;;;;;;;16.00;11.30;;;;;;;20.88;36.35;95199.19;5083897;28;20039;-77
2020/12/03 03:28:53;;;;;;;17.52;11.68;;;;;;;20.70;36.80;95177.91;5082660;28;20036;-76
2020/12/03 03:31:18;;;;;;;15.00;10.43;;;;;;;20.82;36.72;95201.16;5101445;28;20497;-76
2020/12/03 03:33:44;;;;;;;17.80;11.65;;;;;;;20.81;36.51;95205.13;5084565;28;20023;-76
2020/12/03 03:36:09;;;;;;;17.33;11.57;;;;;;;20.83;36.75;95202.66;5102790;28;20039;-76
2020/12/03 03:38:35;;;;;;;18.52;11.50;;;;;;;20.82;36.69;95201.16;5082861;28;20090;-76
2020/12/03 03:41:00;;;;;;;16.42;10.77;;;;;;;20.78;36.61;95192.53;5083038;28;20060;-76
2020/12/03 03:43:26;;;;;;;15.48;11.13;;;;;;;20.78;36.78;95206.81;5083573;28;20035;-76
2020/12/03 03:45:51;;;;;;;18.33;11.70;;;;;;;20.80;36.63;95203.63;5100557;28;20047;-76
2020/12/03 03:48:17;;;;;;;17.58;11.63;;;;;;;20.75;36.55;95207.06;5103015;28;20035;-76
2020/12/03 03:50:42;;;;;;;17.00;10.82;;;;;;;20.89;36.43;95211.56;5084162;28;20038;-76
2020/12/03 03:53:07;;;;;;;17.08;10.60;;;;;;;20.90;36.52;95191.34;5102013;28;20648;-76
2020/12/03 03:55:33;;;;;;;16.80;11.48;;;;;;;21.05;36.55;95196.06;5083378;28;20096;-76
2020/12/03 03:57:58;;;;;;;15.50;10.60;;;;;;;21.09;36.53;95199.28;5083433;28;20547;-76
2020/12/03 04:00:24;;;;;;;17.08;10.48;;;;;;;21.15;36.16;95185.72;5100704;28;20474;-76
2020/12/03 04:02:49;;;;;;;14.52;9.90;;;;;;;21.19;36.17;95181.53;5083895;28;20110;-76
2020/12/03 04:05:15;;;;;;;16.27;10.63;;;;;;;21.27;36.33;95192.66;5084165;28;20039;-76
2020/12/03 04:07:41;;;;;;;18.15;10.95;;;;;;;21.31;35.70;95188.47;5065772;28;20058;-76
2020/12/03 04:10:06;;;;;;;13.95;9.77;;;;;;;21.33;36.24;95196.88;5065981;28;20493;-76
2020/12/03 04:12:32;;;;;;;15.07;10.13;;;;;;;21.39;36.00;95205.78;5050360;28;22528;-76
2020/12/03 04:15:00;;;;;;;15.32;10.68;;;;;;;21.38;35.96;95196.13;5102212;28;20042;-77
2020/12/03 04:17:27;;;;;;;15.63;10.10;;;;;;;21.41;35.82;95192.44;5101854;28;20031;-76
2020/12/03 04:19:53;;;;;;;15.95;10.82;;;;;;;21.43;35.76;95195.41;5067094;28;20046;-76
2020/12/03 04:22:18;;;;;;;13.98;9.88;;;;;;;21.47;35.80;95187.78;5083821;28;20035;-76
2020/12/03 04:24:44;;;;;;;14.20;9.80;;;;;;;21.45;35.92;95187.50;5083844;28;20054;-76
2020/12/03 04:27:09;;;;;;;15.13;9.90;;;;;;;21.42;35.94;95177.63;5102154;28;20394;-76
2020/12/03 04:29:35;;;;;;;13.95;9.30;;;;;;;21.47;35.76;95182.34;5083968;28;20524;-76
2020/12/03 04:32:00;;;;;;;14.63;10.10;;;;;;;21.55;35.83;95191.50;5102026;28;20028;-76
2020/12/03 04:34:25;;;;;;;15.40;9.85;;;;;;;21.52;36.04;95187.03;5083617;28;20023;-76
2020/12/03 04:36:51;;;;;;;12.82;8.75;;;;;;;21.56;35.59;95203.84;5102181;28;20035;-76
2020/12/03 04:39:17;;;;;;;13.43;9.52;;;;;;;21.53;35.77;95183.84;5084074;28;20028;-76
2020/12/03 04:41:42;;;;;;;12.70;9.45;;;;;;;21.28;35.78;95158.84;5084035;28;20024;-76
2020/12/03 04:44:27;;;;;;;13.32;9.38;;;;;;;21.44;35.99;95196.88;5101167;28;20043;-75
2020/12/03 04:47:00;;;;;;;14.30;9.57;;;;;;;21.31;35.99;95185.75;5082375;28;20191;-76
2020/12/03 04:49:52;;;;;;;12.20;8.98;;;;;;;21.33;35.93;95185.25;5083214;28;20035;-76
2020/12/03 04:52:33;;;;;;;13.23;9.32;;;;;;;21.34;36.11;95187.47;5098740;28;20114;-77
2020/12/03 04:55:24;;;;;;;15.20;8.68;;;;;;;21.45;35.62;95204.56;5064783;28;20131;-75
2020/12/03 04:58:27;;;;;;;13.40;9.32;;;;;;;21.57;35.63;95199.91;5098954;28;20071;-77
2020/12/03 05:01:05;;;;;;;13.38;8.77;;;;;;;21.63;35.83;95197.94;5102543;28;20036;-77
2020/12/03 05:03:52;;;;;;;12.75;9.00;;;;;;;21.68;35.55;95189.03;4988799;28;20032;-77
2020/12/03 05:06:46;;;;;;;13.68;8.95;;;;;;;21.72;35.56;95184.84;5081499;28;20032;-78
2020/12/03 05:09:30;;;;;;;12.30;8.68;;;;;;;21.75;35.43;95183.84;5083218;28;20161;-77
2020/12/03 05:12:20;;;;;;;12.27;8.38;;;;;;;21.77;35.53;95183.38;5083172;28;20040;-77
2020/12/03 05:14:52;;;;;;;12.27;8.65;;;;;;;21.85;35.41;95198.66;5048797;28;20044;-78
2020/12/03 05:17:32;;;;;;;12.35;8.57;;;;;;;21.92;35.21;95187.31;5068800;28;20057;-77
2020/12/03 05:20:04;;;;;;;12.40;8.27;;;;;;;21.95;35.41;95192.50;5065225;28;20032;-76
2020/12/03 05:22:29;;;;;;;13.85;8.85;;;;;;;22.04;35.07;95200.41;5054994;28;20478;-77
2020/12/03 05:24:55;;;;;;;11.60;8.02;;;;;;;22.10;34.60;95192.97;5068850;28;20035;-78
2020/12/03 05:27:23;;;;;;;12.52;8.25;;;;;;;22.12;34.71;95184.31;5051361;28;20032;-78
2020/12/03 05:29:49;;;;;;;11.73;8.40;;;;;;;22.21;34.72;95198.44;5067299;28;20031;-78
2020/12/03 05:32:14;;;;;;;14.00;8.93;;;;;;;22.31;34.67;95196.94;5037726;28;20020;-77
2020/12/03 05:34:40;;;;;;;12.43;8.27;;;;;;;22.38;34.40;95201.88;5050759;28;20036;-77
2020/12/03 05:37:13;;;;;;;12.38;8.55;;;;;;;22.42;34.30;95196.94;5067524;28;20043;-78
2020/12/03 05:39:43;;;;;;;11.85;8.80;;;;;;;22.52;34.35;95200.84;5066860;28;20114;-77
2020/12/03 05:42:11;;;;;;;12.98;8.32;;;;;;;22.59;34.21;95200.34;5038283;28;20478;-78
2020/12/03 05:44:47;;;;;;;12.23;7.88;;;;;;;22.66;33.54;95216.13;5083652;28;20513;-78
2020/12/03 05:47:27;;;;;;;12.13;8.27;;;;;;;22.73;33.67;95204.75;5059620;28;20062;-78
2020/12/03 05:49:59;;;;;;;11.48;7.97;;;;;;;22.82;34.03;95202.47;5067057;28;20135;-78
2020/12/03 05:52:26;;;;;;;11.43;7.97;;;;;;;22.87;33.80;95203.69;5100241;28;20040;-78
2020/12/03 05:55:12;;;;;;;11.65;7.85;;;;;;;22.97;33.98;95198.25;5066605;28;20040;-78
2020/12/03 05:57:41;;;;;;;11.75;7.65;;;;;;;22.99;33.43;95190.31;5066344;28;20032;-78
2020/12/03 06:00:13;;;;;;;12.05;8.27;;;;;;;23.09;33.55;95199.69;5067165;28;20040;-77
2020/12/03 06:02:58;;;;;;;10.40;7.50;;;;;;;23.16;33.21;95198.41;5084391;28;20111;-78
2020/12/03 06:05:37;;;;;;;10.85;7.90;;;;;;;23.20;33.29;95196.91;5065975;28;20089;-78
2020/12/03 06:08:22;;;;;;;11.65;7.95;;;;;;;23.23;33.16;95198.63;5066474;28;20090;-77
2020/12/03 06:11:13;;;;;;;10.80;7.72;;;;;;;23.29;33.13;95191.16;5066524;28;20051;-78
2020/12/03 06:13:57;;;;;;;11.38;7.75;;;;;;;23.31;32.97;95187.94;5067027;28;20036;-78
2020/12/03 06:16:29;;;;;;;10.82;7.72;;;;;;;23.40;33.05;95186.34;5084364;28;20020;-78
2020/12/03 06:19:19;;;;;;;12.25;7.60;;;;;;;23.41;32.43;95204.19;5080207;28;20036;-78
2020/12/03 06:22:11;;;;;;;10.57;7.22;;;;;;;23.50;33.05;95197.72;5097432;28;20039;-75
2020/12/03 06:24:57;;;;;;;11.05;7.78;;;;;;;23.55;32.86;95205.09;5073063;28;20100;-78
2020/12/03 06:27:48;;;;;;;13.73;8.60;;;;;;;23.51;32.53;95213.56;5067196;28;20044;-77
2020/12/03 06:30:18;;;;;;;11.68;8.65;;;;;;;23.56;32.20;95203.88;5083936;28;20032;-77
2020/12/03 06:33:02;;;;;;;11.82;8.32;;;;;;;23.61;32.58;95205.81;5065600;28;20020;-77
2020/12/03 06:35:42;;;;;;;12.48;8.05;;;;;;;23.63;32.26;95203.31;5084151;28;20430;-78
2020/12/03 06:38:08;;;;;;;11.30;7.82;;;;;;;23.69;32.28;95201.31;5072392;28;20031;-77
2020/12/03 06:40:35;;;;;;;11.65;8.32;;;;;;;23.71;32.57;95201.56;5085497;28;20474;-79
2020/12/03 06:43:12;;;;;;;10.88;7.43;;;;;;;23.82;32.85;95209.66;5065791;28;20114;-77
2020/12/03 06:46:15;;;;;;;12.55;8.13;;;;;;;23.88;33.15;95206.41;5063825;28;20508;-78
2020/12/03 06:48:49;;;;;;;11.20;7.50;;;;;;;23.94;32.71;95196.16;5065989;28;20070;-77
2020/12/03 06:51:49;;;;;;;10.63;7.38;;;;;;;23.88;33.21;95202.91;5082929;28;20032;-77
2020/12/03 06:54:30;;;;;;;11.65;8.15;;;;;;;23.87;33.04;95223.28;5065562;28;20451;-77
2020/12/03 06:57:26;;;;;;;11.18;7.50;;;;;;;23.85;33.75;95208.66;5066160;28;20482;-78
2020/12/03 07:00:15;;;;;;;11.20;7.60;;;;;;;23.91;33.11;95208.09;5067405;28;20062;-80
2020/12/03 07:03:03;;;;;;;12.45;7.57;;;;;;;23.97;33.14;95211.50;5068648;28;20059;-77
2020/12/03 07:06:05;;;;;;;11.98;7.57;;;;;;;24.05;33.29;95211.69;5083015;28;20106;-78
2020/12/03 07:08:46;;;;;;;11.15;7.35;;;;;;;24.07;33.20;95201.75;5083001;28;20046;-78
2020/12/03 07:11:48;;;;;;;11.45;7.68;;;;;;;24.07;32.82;95209.94;5083713;28;20020;-78
2020/12/03 07:14:51;;;;;;;11.30;7.50;;;;;;;24.17;33.15;95218.53;5098081;28;20035;-76
2020/12/03 07:18:07;;;;;;;10.25;6.97;;;;;;;24.21;32.84;95214.28;5036246;28;20043;-79
2020/12/03 07:20:58;;;;;;;11.60;7.47;;;;;;;24.26;32.55;95218.97;5036383;28;20390;-79
2020/12/03 07:23:38;;;;;;;11.52;8.25;;;;;;;24.31;33.04;95201.81;5063188;28;20479;-80
2020/12/03 07:26:12;;;;;;;9.82;7.00;;;;;;;24.32;32.51;95203.28;5063615;28;20085;-77
2020/12/03 07:28:37;;;;;;;11.32;7.35;;;;;;;24.39;32.35;95208.19;5064012;28;20032;-80
2020/12/03 07:31:06;;;;;;;11.55;7.65;;;;;;;24.49;32.50;95207.34;5064560;28;20035;-76
2020/12/03 07:33:34;;;;;;;11.18;7.43;;;;;;;24.55;32.49;95205.31;5063982;28;20039;-76
2020/12/03 07:36:20;;;;;;;11.80;7.50;;;;;;;24.51;32.33;95193.94;5061800;28;20061;-76
2020/12/03 07:38:51;;;;;;;10.93;7.22;;;;;;;24.50;31.85;95194.44;5064712;28;20027;-78
2020/12/03 07:41:21;;;;;;;11.35;7.68;;;;;;;24.47;31.92;95198.22;5062971;28;20039;-79
2020/12/03 07:43:46;;;;;;;11.93;8.25;;;;;;;24.48;32.60;95205.88;5048089;28;20068;-77
2020/12/03 07:46:27;;;;;;;8.90;6.88;;;;;;;24.47;32.12;95198.22;5063553;28;20036;-77
2020/12/03 07:48:52;;;;;;;10.15;7.32;;;;;;;24.44;31.78;95199.22;5085229;28;20417;-76
2020/12/03 07:51:18;;;;;;;10.45;7.18;;;;;;;24.45;31.87;95197.97;5088250;28;20024;-78
2020/12/03 07:53:44;;;;;;;10.35;7.28;;;;;;;24.30;32.05;95183.94;5085153;28;20028;-78
2020/12/03 07:56:27;;;;;;;10.98;7.35;;;;;;;24.40;31.89;95204.22;5064866;28;20039;-78
2020/12/03 07:58:54;;;;;;;11.18;7.03;;;;;;;24.23;32.34;95189.97;5077526;28;20027;-78
2020/12/03 08:01:25;;;;;;;10.63;6.97;;;;;;;24.31;32.01;95211.97;5048237;28;20032;-78
2020/12/03 08:03:51;;;;;;;9.70;7.10;;;;;;;24.24;32.18;95207.81;5082395;28;20050;-78
2020/12/03 08:06:32;;;;;;;11.23;7.20;;;;;;;24.25;32.12;95209.28;5062982;28;20481;-78
2020/12/03 08:09:01;;;;;;;10.43;7.50;;;;;;;24.18;32.21;95215.31;5078404;28;20040;-78
2020/12/03 08:11:43;;;;;;;10.82;7.18;;;;;;;24.14;32.57;95205.91;5082168;28;20031;-78
2020/12/03 08:14:40;;;;;;;10.48;7.13;;;;;;;24.14;32.72;95214.88;5063381;28;20080;-78
2020/12/03 08:17:25;;;;;;;10.30;7.18;;;;;;;24.10;32.62;95214.38;5082391;28;20028;-78
2020/12/03 08:19:57;;;;;;;10.35;6.93;;;;;;;24.10;32.65;95203.47;5066081;28;20154;-80
2020/12/03 08:22:26;;;;;;;10.80;7.25;;;;;;;24.09;32.93;95210.16;5082445;28;20375;-75
2020/12/03 08:25:04;;;;;;;12.05;7.65;;;;;;;24.12;33.28;95211.16;5063032;28;20097;-75
2020/12/03 08:27:29;;;;;;;9.27;6.50;;;;;;;24.09;33.52;95207.44;5081784;28;20081;-76
2020/12/03 08:29:55;;;;;;;10.70;7.28;;;;;;;24.08;33.40;95211.44;5062649;28;20032;-75
2020/12/03 08:32:20;;;;;;;9.57;6.70;;;;;;;24.08;33.49;95225.06;5064422;28;20008;-76
2020/12/03 08:34:45;;;;;;;10.50;7.20;;;;;;;24.01;33.55;95206.53;5082351;28;20040;-76
2020/12/03 08:37:18;;;;;;;10.35;6.93;;;;;;;24.00;33.90;95204.31;5063883;28;20266;-80
2020/12/03 08:39:46;;;;;;;9.80;7.05;;;;;;;24.01;33.92;95217.44;5056495;28;20028;-79
2020/12/03 08:42:12;;;;;;;10.10;6.85;;;;;;;23.93;34.00;95200.16;5048242;28;20032;-76
2020/12/03 08:44:38;;;;;;;9.77;7.15;;;;;;;23.98;34.02;95207.53;5056077;28;20049;-79
2020/12/03 08:47:33;;;;;;;10.43;7.10;;;;;;;23.98;34.22;95213.00;5091754;28;20052;-78
2020/12/03 08:50:00;;;;;;;9.85;7.07;;;;;;;23.90;33.90;95192.97;5056251;28;20392;-78
2020/12/03 08:52:26;;;;;;;10.00;7.30;;;;;;;23.91;34.01;95208.09;5059416;28;20025;-78
2020/12/03 08:54:51;;;;;;;9.98;6.90;;;;;;;23.93;33.71;95205.59;5060686;28;20115;-79
2020/12/03 08:57:17;;;;;;;9.82;7.05;;;;;;;23.88;33.71;95206.41;5046740;28;20421;-79
2020/12/03 08:59:45;;;;;;;10.38;6.82;;;;;;;23.87;33.72;95204.91;5087189;28;20043;-79
2020/12/03 09:02:11;;;;;;;11.05;7.63;;;;;;;23.86;33.85;95211.59;5063983;28;20522;-79
2020/12/03 09:04:38;;;;;;;10.38;7.47;;;;;;;23.84;33.84;95201.72;5064088;28;20033;-82
2020/12/03 09:07:07;;;;;;;9.02;7.07;;;;;;;23.80;33.70;95195.81;5046840;28;20040;-79
2020/12/03 09:09:33;;;;;;;9.77;7.00;;;;;;;23.82;33.96;95187.84;5064296;28;20107;-85
2020/12/03 09:11:58;;;;;;;12.23;7.55;;;;;;;23.84;33.91;95207.91;5060911;28;20479;-79
2020/12/03 09:14:25;;;;;;;10.25;7.45;;;;;;;23.82;34.06;95209.66;5094552;28;20028;-80
2020/12/03 09:16:58;;;;;;;10.15;6.93;;;;;;;23.81;33.88;95191.81;5065066;28;20476;-79
2020/12/03 09:19:24;;;;;;;8.85;6.80;;;;;;;23.81;33.91;95191.81;5079746;28;20047;-80
2020/12/03 09:21:50;;;;;;;10.85;7.25;;;;;;;23.78;33.95;95192.81;5063858;28;20502;-79
2020/12/03 09:24:15;;;;;;;9.45;6.82;;;;;;;23.76;33.77;95195.31;5063406;28;20494;-78
2020/12/03 09:26:41;;;;;;;11.52;7.18;;;;;;;23.74;34.26;95186.94;5063436;28;20032;-78
2020/12/03 09:29:07;;;;;;;11.13;7.55;;;;;;;23.77;34.03;95191.38;5079035;28;20498;-78
2020/12/03 09:31:34;;;;;;;9.65;7.13;;;;;;;23.74;34.20;95187.66;5080589;28;20032;-79
2020/12/03 09:33:59;;;;;;;9.18;6.78;;;;;;;23.77;33.73;95186.66;5045410;28;20579;-79
2020/12/03 09:36:24;;;;;;;9.32;6.57;;;;;;;23.76;33.55;95190.59;5047219;28;20119;-78
2020/12/03 09:38:50;;;;;;;10.45;6.90;;;;;;;23.74;33.86;95181.47;5047333;28;20054;-78
2020/12/03 09:41:25;;;;;;;8.65;6.30;;;;;;;23.74;33.70;95178.75;5079327;28;20037;-78
2020/12/03 09:43:53;;;;;;;10.40;7.50;;;;;;;23.77;33.90;95185.91;5064491;28;20033;-78
2020/12/03 09:46:24;;;;;;;9.40;6.53;;;;;;;23.71;34.12;95166.13;5065717;28;20024;-78
2020/12/03 09:48:53;;;;;;;8.90;6.80;;;;;;;23.74;33.80;95170.56;5066370;28;20044;-78
2020/12/03 09:51:22;;;;;;;9.85;6.80;;;;;;;23.76;33.71;95173.50;5067951;28;20068;-78
2020/12/03 09:53:49;;;;;;;8.27;6.17;;;;;;;23.72;33.75;95156.69;5053591;28;20405;-77
2020/12/03 09:56:15;;;;;;;9.38;6.30;;;;;;;23.71;33.98;95150.50;5084508;28;20349;-78
2020/12/03 09:58:40;;;;;;;9.25;6.53;;;;;;;23.76;34.02;95162.59;5065075;28;23192;-80
2020/12/03 10:01:07;;;;;;;9.88;6.65;;;;;;;23.76;34.17;95162.59;5064663;28;20695;-78
2020/12/03 10:04:05;;;;;;;9.18;6.50;;;;;;;23.75;33.96;95161.13;5051936;28;20829;-81
2020/12/03 10:07:19;;;;;;;10.77;6.95;;;;;;;23.78;33.76;95149.19;5084398;28;20028;-83
2020/12/03 10:10:03;;;;;;;9.63;6.95;;;;;;;23.80;33.92;95146.72;4996153;28;20044;-77
2020/12/03 10:12:53;;;;;;;10.10;6.70;;;;;;;23.82;34.01;95139.50;5029212;28;20502;-77
2020/12/03 10:15:30;;;;;;;8.95;6.32;;;;;;;23.83;33.60;95130.06;5104153;28;20530;-78
2020/12/03 10:18:03;;;;;;;9.30;6.90;;;;;;;23.88;33.87;95132.75;5087848;28;20040;-81
2020/12/03 10:20:29;;;;;;;9.88;6.65;;;;;;;23.91;33.90;95133.72;5070773;28;20501;-82
2020/12/03 10:23:04;;;;;;;10.07;6.55;;;;;;;23.92;33.64;95127.75;5085123;28;20020;-76
2020/12/03 10:25:30;;;;;;;8.82;6.32;;;;;;;23.99;34.13;95132.66;5085362;28;20047;-77
2020/12/03 10:27:59;;;;;;;8.40;5.53;;;;;;;24.08;34.43;95129.59;5069684;28;20031;-78
2020/12/03 10:30:39;;;;;;;8.52;6.25;;;;;;;24.13;34.55;95130.78;5068473;28;20055;-78
2020/12/03 10:33:08;;;;;;;7.60;5.93;;;;;;;24.20;34.49;95124.75;5086233;28;20523;-80
2020/12/03 10:35:34;;;;;;;8.50;6.13;;;;;;;24.22;34.09;95117.53;5086031;28;20023;-79
2020/12/03 10:38:01;;;;;;;8.02;5.45;;;;;;;24.32;33.59;95115.94;5086948;28;20024;-83
2020/12/03 10:40:26;;;;;;;7.63;5.40;;;;;;;24.36;34.25;95100.03;5052221;28;20036;-79
2020/12/03 10:42:52;;;;;;;8.65;6.20;;;;;;;24.43;34.08;95100.19;5103375;28;20520;-80
2020/12/03 10:45:22;;;;;;;9.52;6.43;;;;;;;24.34;34.00;95086.16;5086163;28;20044;-79
2020/12/03 10:47:57;;;;;;;8.73;6.15;;;;;;;24.47;33.98;95099.94;5071449;28;20497;-81
2020/12/03 10:50:42;;;;;;;8.13;6.13;;;;;;;24.53;34.01;95103.31;5085895;28;20470;-81
2020/12/03 10:53:07;;;;;;;8.68;6.32;;;;;;;24.62;34.04;95100.22;5087098;28;20027;-79
2020/12/03 10:55:33;;;;;;;7.97;5.72;;;;;;;24.71;33.51;95097.13;5051855;28;20051;-79
2020/12/03 10:58:01;;;;;;;9.23;6.22;;;;;;;24.79;33.89;95092.56;5067452;28;20036;-85
2020/12/03 11:00:27;;;;;;;8.40;5.97;;;;;;;24.78;33.58;95082.88;5087243;28;20035;-81
2020/12/03 11:02:52;;;;;;;9.15;6.32;;;;;;;24.82;33.22;95076.59;5086834;28;20031;-79
2020/12/03 11:05:18;;;;;;;8.32;5.80;;;;;;;24.89;33.54;95078.03;5106084;28;20038;-78
2020/12/03 11:07:51;;;;;;;8.35;5.95;;;;;;;24.93;33.84;95075.72;5091683;28;20018;-79
2020/12/03 11:10:17;;;;;;;8.55;6.15;;;;;;;24.98;33.27;95072.91;5095422;28;20094;-81
2020/12/03 11:12:42;;;;;;;10.80;6.10;;;;;;;25.07;33.41;95069.13;5087722;28;20497;-80
2020/12/03 11:15:07;;;;;;;8.63;6.05;;;;;;;25.13;33.42;95067.75;5070628;28;20011;-82
2020/12/03 11:17:36;;;;;;;10.23;6.82;;;;;;;25.18;33.09;95064.19;5112527;27;20103;-79
2020/12/03 11:20:03;;;;;;;9.45;6.22;;;;;;;25.20;33.32;95066.41;5086897;28;20050;-79
2020/12/03 11:22:41;;;;;;;9.02;5.97;;;;;;;25.25;32.83;95063.59;5104385;28;20055;-79
2020/12/03 11:25:12;;;;;;;9.40;6.28;;;;;;;25.26;32.90;95054.16;5113863;28;20086;-80
2020/12/03 11:27:40;;;;;;;8.60;6.50;;;;;;;25.28;33.22;95051.63;5097745;28;20656;-79
2020/12/03 11:30:19;;;;;;;8.68;5.90;;;;;;;25.26;32.91;95037.75;5098995;28;20024;-80
2020/12/03 11:32:48;;;;;;;9.40;6.07;;;;;;;25.28;32.58;95046.16;5100327;28;20023;-82
2020/12/03 11:35:36;;;;;;;9.65;6.30;;;;;;;25.29;32.54;95036.72;5100989;28;20028;-82
2020/12/03 11:38:03;;;;;;;8.82;6.13;;;;;;;25.38;32.45;95044.50;5083107;28;20201;-80
2020/12/03 11:40:36;;;;;;;9.00;5.93;;;;;;;25.40;32.70;95031.06;5070751;28;20031;-78
2020/12/03 11:50:53;;;;;;;9.35;5.80;;;;;;;25.61;32.11;95018.28;5070117;28;20458;-81